Aegean Pride — ELXK8 — position and weather

sailwx.info

Track history (hours):
 
Tides and Currents Weather Stations Pressure Air Temp Water Temp Dewpoint Dewpoint Depression Visibility Wind Speed Wind Dir Waves Ship Positions

Aegean Pride

Last reported at 2018-Apr-11 14:40 UTC. Time now 2018-Apr-23 15:22 UTC.
Position S 29°18' E 031°54'.
Warning: this ship's position is 12 days out of date.

Length 245 m; draft 8.5 m.

Type: Ship. MMSI: 636011186.

Date/timePositionNaut miles runAvg speedWind from/ knotsBaromVisibWave heightAir tempDewpointWater temp
2018-Apr-11 14:40S 29°18' E 031°54'212.4
2018-Apr-11 14:30S 29°20' E 031°52'612.4
2018-Apr-11 14:00S 29°24' E 031°47'612.8
2018-Apr-11 13:30S 29°28' E 031°42'612.7
2018-Apr-11 13:00S 29°33' E 031°37'612.7
2018-Apr-11 12:30S 29°37' E 031°32'613.0
2018-Apr-11 12:00S 29°43' E 031°27'712.8
2018-Apr-11 11:29S 29°48' E 031°23'612.7
2018-Apr-11 11:01S 29°53' E 031°19'713.0
2018-Apr-11 10:30S 29°58' E 031°14'713.3
2018-Apr-11 10:01S 30°03' E 031°09'713.6
2018-Apr-11 09:30S 30°08' E 031°04'714.1
2018-Apr-11 09:00S 30°14' E 031°00'713.9
2018-Apr-11 08:30S 30°20' E 030°57'  
Track history (hours):
 
Tides and Currents Weather Stations Pressure Air Temp Water Temp Dewpoint Dewpoint Depression Visibility Wind Speed Wind Dir Waves Ship Positions

Aegean Pride

Last reported at 2018-Apr-11 14:40 UTC. Time now 2018-Apr-23 15:22 UTC.
Position S 29°18' E 031°54'.
Warning: this ship's position is 12 days out of date.

Length 245 m; draft 8.5 m.

Type: Ship. MMSI: 636011186.

Date/timePositionNaut miles runAvg speedWind from/ knotsBaromVisibWave heightAir tempDewpointWater temp
2018-Apr-11 14:40S 29°18' E 031°54'212.4
2018-Apr-11 14:30S 29°20' E 031°52'612.4
2018-Apr-11 14:00S 29°24' E 031°47'612.8
2018-Apr-11 13:30S 29°28' E 031°42'612.7
2018-Apr-11 13:00S 29°33' E 031°37'612.7
2018-Apr-11 12:30S 29°37' E 031°32'613.0
2018-Apr-11 12:00S 29°43' E 031°27'712.8
2018-Apr-11 11:29S 29°48' E 031°23'612.7
2018-Apr-11 11:01S 29°53' E 031°19'713.0
2018-Apr-11 10:30S 29°58' E 031°14'713.3
2018-Apr-11 10:01S 30°03' E 031°09'713.6
2018-Apr-11 09:30S 30°08' E 031°04'714.1
2018-Apr-11 09:00S 30°14' E 031°00'713.9
2018-Apr-11 08:30S 30°20' E 030°57'  

Dump ship's entire track history